createdAt,value
2024-02-07T00:00:44.758Z,1.80
2024-02-07T00:06:07.905Z,2.50
2024-02-07T00:11:11.129Z,2.80
2024-02-07T00:16:15.400Z,2.60
2024-02-07T00:21:18.561Z,2.40
2024-02-07T00:26:21.565Z,2.30
2024-02-07T00:31:25.427Z,2.30
2024-02-07T00:36:28.499Z,2.30
2024-02-07T00:41:31.908Z,2.10
2024-02-07T00:46:35.225Z,2.10
2024-02-07T00:51:38.842Z,2.50
2024-02-07T00:56:41.850Z,2.30
2024-02-07T01:02:17.754Z,2.40
2024-02-07T01:07:21.892Z,0.60
2024-02-07T01:12:25.083Z,0.60
2024-02-07T01:17:28.624Z,0.40
2024-02-07T01:22:32.247Z,0.40
2024-02-07T01:27:35.632Z,0.50
2024-02-07T01:32:43.386Z,0.50
2024-02-07T01:37:47.709Z,0.40
2024-02-07T01:42:51.520Z,0.60
2024-02-07T01:47:54.686Z,0.60
2024-02-07T01:53:03.789Z,0.50
2024-02-07T01:58:07.092Z,0.50
2024-02-07T02:03:10.329Z,0.60
2024-02-07T02:08:13.820Z,0.40
2024-02-07T02:13:18.197Z,0.70
2024-02-07T02:18:21.372Z,0.70
2024-02-07T02:23:47.817Z,0.40
2024-02-07T02:28:54.895Z,0.70
2024-02-07T02:33:59.535Z,1.70
2024-02-07T02:39:07.111Z,2.10
2024-02-07T02:44:10.461Z,1.20
2024-02-07T02:49:13.679Z,1.10
2024-02-07T02:54:17.330Z,0.80
2024-02-07T02:59:22.170Z,0.90
2024-02-07T03:04:27.778Z,0.40
2024-02-07T03:09:32.249Z,0.50
2024-02-07T03:14:36.014Z,0.50
2024-02-07T03:19:39.049Z,0.70
2024-02-07T03:24:43.259Z,0.70
2024-02-07T03:29:46.361Z,0.80
2024-02-07T03:34:49.496Z,0.90
2024-02-07T03:39:52.581Z,0.90
2024-02-07T03:44:58.362Z,1.20
2024-02-07T03:50:06.017Z,0.80
2024-02-07T03:55:09.789Z,1.10
2024-02-07T04:00:17.026Z,0.90
2024-02-07T04:05:20.616Z,1.00
2024-02-07T04:10:25.685Z,0.80
2024-02-07T04:15:47.424Z,0.50
2024-02-07T04:21:10.941Z,1.10
2024-02-07T04:26:39.317Z,1.20
2024-02-07T04:32:01.059Z,1.00
2024-02-07T04:37:23.075Z,1.10
2024-02-07T04:42:44.716Z,1.30
2024-02-07T04:48:06.833Z,1.10
2024-02-07T04:53:28.556Z,1.00
2024-02-07T04:58:50.308Z,0.90
2024-02-07T05:04:12.343Z,1.30
2024-02-07T05:09:34.301Z,1.50
2024-02-07T05:14:49.377Z,2.10
2024-02-07T05:19:53.190Z,1.50
2024-02-07T05:24:56.322Z,1.90
2024-02-07T05:29:59.332Z,2.60
2024-02-07T05:35:02.644Z,1.20
2024-02-07T05:40:06.739Z,2.10
2024-02-07T05:45:10.308Z,1.40
2024-02-07T05:50:13.745Z,2.10
2024-02-07T05:55:16.940Z,2.40
2024-02-07T06:00:20.246Z,1.90
2024-02-07T06:05:23.636Z,2.80
2024-02-07T06:10:26.917Z,7.00
2024-02-07T06:15:30.086Z,3.90
2024-02-07T06:20:33.415Z,4.80
2024-02-07T06:25:36.840Z,3.80
2024-02-07T06:30:40.128Z,3.60
2024-02-07T06:35:43.646Z,2.90
2024-02-07T06:40:46.917Z,3.20
2024-02-07T06:45:50.084Z,2.20
2024-02-07T06:50:53.382Z,3.00
2024-02-07T06:55:59.965Z,2.40
2024-02-07T07:01:04.168Z,2.80
2024-02-07T07:06:07.773Z,1.30
2024-02-07T07:11:11.136Z,2.30
2024-02-07T07:16:14.428Z,2.00
2024-02-07T07:21:17.982Z,2.40
2024-02-07T07:26:22.316Z,1.90
2024-02-07T07:31:27.033Z,3.20
2024-02-07T07:36:30.493Z,2.10
2024-02-07T07:41:35.040Z,3.80
2024-02-07T07:46:38.692Z,3.60
2024-02-07T07:51:42.880Z,2.60
2024-02-07T07:56:46.101Z,2.70
2024-02-07T08:01:57.679Z,3.00
2024-02-07T08:07:00.942Z,2.50
2024-02-07T08:12:05.028Z,3.10
2024-02-07T08:17:08.550Z,2.60
2024-02-07T08:22:11.958Z,2.90
2024-02-07T08:27:15.398Z,3.10
2024-02-07T08:32:18.614Z,3.20
2024-02-07T08:37:23.538Z,3.10
2024-02-07T08:42:27.016Z,2.40
2024-02-07T08:47:30.755Z,3.70
2024-02-07T08:52:34.028Z,3.10
2024-02-07T08:57:37.924Z,3.10
2024-02-07T09:02:41.090Z,3.50
2024-02-07T09:07:44.454Z,2.90
2024-02-07T09:12:47.902Z,2.90
2024-02-07T09:17:51.336Z,3.60
2024-02-07T09:22:54.585Z,2.90
2024-02-07T09:27:59.050Z,2.40
2024-02-07T09:33:02.489Z,3.60
2024-02-07T09:38:05.898Z,3.20
2024-02-07T09:43:10.633Z,2.20
2024-02-07T09:48:23.041Z,3.10
2024-02-07T09:53:28.085Z,2.50
2024-02-07T09:58:32.256Z,2.30
2024-02-07T10:03:38.753Z,2.00
2024-02-07T10:08:48.361Z,3.30
2024-02-07T10:13:51.630Z,4.00
2024-02-07T10:18:55.327Z,3.90
2024-02-07T10:23:58.440Z,3.40
2024-02-07T10:29:03.397Z,3.60
2024-02-07T10:34:19.738Z,2.80
2024-02-07T10:39:23.031Z,2.30
2024-02-07T10:44:26.338Z,2.20
2024-02-07T10:49:30.205Z,3.20
2024-02-07T10:54:33.487Z,3.80
2024-02-07T10:59:40.415Z,1.40
2024-02-07T11:04:46.863Z,1.80
2024-02-07T11:09:50.396Z,1.50
2024-02-07T11:14:55.741Z,2.20
2024-02-07T11:19:59.211Z,1.70
2024-02-07T11:25:03.980Z,2.20
2024-02-07T11:30:11.928Z,2.50
2024-02-07T11:35:15.781Z,2.10
2024-02-07T11:40:20.795Z,1.20
2024-02-07T11:45:24.126Z,1.80
2024-02-07T11:50:27.342Z,1.70
2024-02-07T11:55:41.636Z,2.10
2024-02-07T12:00:46.422Z,2.60
2024-02-07T12:05:50.433Z,3.60
2024-02-07T12:10:53.700Z,3.60
2024-02-07T12:16:01.148Z,5.00
2024-02-07T12:21:06.120Z,4.70
2024-02-07T12:26:09.663Z,4.00
2024-02-07T12:31:13.001Z,4.40
2024-02-07T12:36:17.337Z,3.90
2024-02-07T12:41:20.999Z,4.30
2024-02-07T12:46:24.811Z,2.90
2024-02-07T12:51:28.610Z,2.20
2024-02-07T12:56:31.930Z,3.20
2024-02-07T13:01:35.432Z,2.40
2024-02-07T13:06:42.245Z,2.80
2024-02-07T13:11:45.558Z,3.60
2024-02-07T13:16:52.647Z,2.50
2024-02-07T13:21:56.389Z,3.20
2024-02-07T13:27:02.903Z,4.50
2024-02-07T13:32:11.760Z,8.20
2024-02-07T13:37:15.723Z,3.70
2024-02-07T13:42:21.902Z,3.00
2024-02-07T13:47:25.622Z,2.50
2024-02-07T13:52:29.140Z,1.80
2024-02-07T13:57:32.879Z,1.00
2024-02-07T14:02:36.210Z,1.20
2024-02-07T14:07:39.549Z,0.70
2024-02-07T14:12:42.934Z,1.40
2024-02-07T14:17:46.385Z,1.40
2024-02-07T14:22:49.904Z,2.10
2024-02-07T14:27:53.200Z,2.90
2024-02-07T14:32:56.489Z,2.10
2024-02-07T14:38:00.083Z,2.50
2024-02-07T14:43:03.538Z,3.20
2024-02-07T14:48:07.521Z,2.70
2024-02-07T14:53:10.933Z,3.30
2024-02-07T14:58:14.391Z,2.70
2024-02-07T15:03:17.735Z,6.40
2024-02-07T15:08:21.222Z,8.70
2024-02-07T15:13:24.732Z,9.50
2024-02-07T15:18:28.215Z,6.40
2024-02-07T15:23:31.615Z,3.00
2024-02-07T15:28:35.184Z,3.90
2024-02-07T15:33:42.155Z,3.30
2024-02-07T15:38:47.992Z,3.50
2024-02-07T15:43:51.930Z,3.30
2024-02-07T15:49:02.595Z,2.80
2024-02-07T15:54:12.775Z,2.80
2024-02-07T15:59:17.513Z,2.00
2024-02-07T16:04:21.180Z,2.50
2024-02-07T16:09:25.585Z,2.00
2024-02-07T16:14:29.912Z,1.90
2024-02-07T16:19:33.591Z,1.70
2024-02-07T16:24:37.472Z,2.00
2024-02-07T16:29:40.891Z,2.00
2024-02-07T16:34:45.564Z,1.80
2024-02-07T16:39:50.427Z,2.20
2024-02-07T16:44:53.789Z,1.90
2024-02-07T16:49:57.223Z,1.90
2024-02-07T16:55:00.967Z,2.00
2024-02-07T17:00:05.222Z,2.80
2024-02-07T17:05:11.657Z,2.50
2024-02-07T17:10:17.651Z,2.60
2024-02-07T17:15:20.843Z,2.30
2024-02-07T17:20:24.562Z,2.20
2024-02-07T17:25:27.998Z,1.90
2024-02-07T17:30:36.735Z,1.40
2024-02-07T17:35:41.162Z,2.00
2024-02-07T17:40:46.203Z,2.60
2024-02-07T17:45:49.428Z,6.40
2024-02-07T17:50:52.672Z,5.70
2024-02-07T17:55:56.077Z,3.90
2024-02-07T18:00:59.524Z,3.30
2024-02-07T18:06:02.995Z,2.00
2024-02-07T18:11:06.692Z,2.10
2024-02-07T18:16:10.064Z,1.90
2024-02-07T18:21:13.356Z,2.20
2024-02-07T18:26:16.777Z,2.80
2024-02-07T18:31:20.119Z,3.10
2024-02-07T18:36:23.498Z,4.20
2024-02-07T18:41:27.607Z,2.20
2024-02-07T18:46:30.974Z,2.00
2024-02-07T18:51:35.054Z,2.40
2024-02-07T18:56:38.378Z,1.80
2024-02-07T19:01:42.506Z,1.90
2024-02-07T19:06:46.178Z,1.50
2024-02-07T19:11:53.745Z,2.10
2024-02-07T19:16:57.678Z,1.90
2024-02-07T19:22:01.200Z,1.20
2024-02-07T19:27:05.023Z,1.60
2024-02-07T19:32:12.374Z,1.60
2024-02-07T19:37:15.996Z,2.40
2024-02-07T19:42:19.364Z,2.20
2024-02-07T19:47:22.587Z,2.90
2024-02-07T19:52:25.906Z,3.30
2024-02-07T19:57:29.192Z,2.30
2024-02-07T20:02:32.738Z,3.00
2024-02-07T20:07:36.304Z,3.70
2024-02-07T20:12:39.760Z,4.50
2024-02-07T20:17:46.066Z,4.20
2024-02-07T20:22:49.533Z,4.50
2024-02-07T20:27:53.174Z,3.90
2024-02-07T20:32:56.843Z,4.40
2024-02-07T20:38:00.689Z,3.90
2024-02-07T20:43:05.309Z,2.80
2024-02-07T20:48:09.251Z,2.90
2024-02-07T20:53:14.427Z,2.40
2024-02-07T20:58:17.678Z,3.20
2024-02-07T21:03:20.969Z,1.80
2024-02-07T21:08:24.522Z,2.30
2024-02-07T21:13:28.720Z,1.60
2024-02-07T21:18:32.028Z,2.30
2024-02-07T21:23:35.381Z,2.70
2024-02-07T21:28:41.827Z,2.00
2024-02-07T21:33:47.357Z,2.30
2024-02-07T21:38:50.544Z,2.30
2024-02-07T21:43:53.794Z,2.60
2024-02-07T21:48:57.249Z,2.20
2024-02-07T21:54:00.605Z,3.90
2024-02-07T21:59:03.972Z,3.30
2024-02-07T22:04:07.338Z,3.20
2024-02-07T22:09:10.541Z,2.80
2024-02-07T22:14:13.837Z,1.90
2024-02-07T22:19:17.063Z,2.40
2024-02-07T22:24:20.263Z,1.80
2024-02-07T22:29:23.694Z,1.90
2024-02-07T22:34:26.970Z,2.20
2024-02-07T22:39:30.204Z,2.30
2024-02-07T22:44:33.514Z,1.70
2024-02-07T22:49:37.673Z,1.70
2024-02-07T22:54:41.075Z,1.80
2024-02-07T22:59:44.283Z,1.90
2024-02-07T23:04:47.725Z,1.60
2024-02-07T23:09:50.905Z,1.40
2024-02-07T23:14:54.023Z,2.10
2024-02-07T23:19:57.159Z,2.00
2024-02-07T23:25:00.354Z,2.30
2024-02-07T23:30:03.654Z,2.20
2024-02-07T23:35:07.139Z,2.70
2024-02-07T23:40:10.983Z,2.20
2024-02-07T23:45:14.457Z,2.10
2024-02-07T23:50:17.860Z,2.40
2024-02-07T23:55:21.040Z,2.20
